sensor_id;sensor_type;location;lat;lon;timestamp;temperature;humidity
7232;DHT22;3657;49.630;11.018;2022-11-23T00:00:16;5.30;99.90
7232;DHT22;3657;49.630;11.018;2022-11-23T00:02:43;5.30;99.90
7232;DHT22;3657;49.630;11.018;2022-11-23T00:05:09;5.30;99.90
7232;DHT22;3657;49.630;11.018;2022-11-23T00:07:36;5.30;99.90
7232;DHT22;3657;49.630;11.018;2022-11-23T00:10:03;5.30;99.90
7232;DHT22;3657;49.630;11.018;2022-11-23T00:12:32;5.20;99.90
7232;DHT22;3657;49.630;11.018;2022-11-23T00:14:58;5.30;99.90
7232;DHT22;3657;49.630;11.018;2022-11-23T00:17:25;5.20;99.90
7232;DHT22;3657;49.630;11.018;2022-11-23T00:19:52;5.20;99.90
7232;DHT22;3657;49.630;11.018;2022-11-23T00:22:19;5.20;99.90
7232;DHT22;3657;49.630;11.018;2022-11-23T00:24:46;5.20;99.90
7232;DHT22;3657;49.630;11.018;2022-11-23T00:27:13;5.20;99.90
7232;DHT22;3657;49.630;11.018;2022-11-23T00:29:41;5.20;99.90
7232;DHT22;3657;49.630;11.018;2022-11-23T00:32:08;5.20;99.90
7232;DHT22;3657;49.630;11.018;2022-11-23T00:34:34;5.20;99.90
7232;DHT22;3657;49.630;11.018;2022-11-23T00:37:01;5.10;99.90
7232;DHT22;3657;49.630;11.018;2022-11-23T00:39:28;5.10;99.90
7232;DHT22;3657;49.630;11.018;2022-11-23T00:41:55;5.10;99.90
7232;DHT22;3657;49.630;11.018;2022-11-23T00:44:21;5.10;99.90
7232;DHT22;3657;49.630;11.018;2022-11-23T00:46:49;5.10;99.90
7232;DHT22;3657;49.630;11.018;2022-11-23T00:49:16;5.10;99.90
7232;DHT22;3657;49.630;11.018;2022-11-23T00:51:43;5.10;99.90
7232;DHT22;3657;49.630;11.018;2022-11-23T00:54:09;5.00;99.90
7232;DHT22;3657;49.630;11.018;2022-11-23T00:56:37;5.00;99.90
7232;DHT22;3657;49.630;11.018;2022-11-23T00:59:04;5.00;99.90
7232;DHT22;3657;49.630;11.018;2022-11-23T01:01:33;5.00;99.90
7232;DHT22;3657;49.630;11.018;2022-11-23T01:04:04;5.00;99.90
7232;DHT22;3657;49.630;11.018;2022-11-23T01:06:33;5.00;99.90
7232;DHT22;3657;49.630;11.018;2022-11-23T01:09:03;5.00;99.90
7232;DHT22;3657;49.630;11.018;2022-11-23T01:11:31;5.00;99.90
7232;DHT22;3657;49.630;11.018;2022-11-23T01:13:58;5.00;99.90
7232;DHT22;3657;49.630;11.018;2022-11-23T01:16:26;5.00;99.90
7232;DHT22;3657;49.630;11.018;2022-11-23T01:18:54;5.00;99.90
7232;DHT22;3657;49.630;11.018;2022-11-23T01:21:22;5.00;99.90
7232;DHT22;3657;49.630;11.018;2022-11-23T01:23:49;4.90;99.90
7232;DHT22;3657;49.630;11.018;2022-11-23T01:26:16;5.00;99.90
7232;DHT22;3657;49.630;11.018;2022-11-23T01:28:43;5.00;99.90
7232;DHT22;3657;49.630;11.018;2022-11-23T01:31:11;5.00;99.90
7232;DHT22;3657;49.630;11.018;2022-11-23T01:33:40;4.90;99.90
7232;DHT22;3657;49.630;11.018;2022-11-23T01:36:11;4.90;99.90
7232;DHT22;3657;49.630;11.018;2022-11-23T01:38:39;4.90;99.90
7232;DHT22;3657;49.630;11.018;2022-11-23T01:41:07;4.80;99.90
7232;DHT22;3657;49.630;11.018;2022-11-23T01:43:34;4.80;99.90
7232;DHT22;3657;49.630;11.018;2022-11-23T01:46:01;4.80;99.90
7232;DHT22;3657;49.630;11.018;2022-11-23T01:48:31;4.80;99.90
7232;DHT22;3657;49.630;11.018;2022-11-23T01:51:01;4.80;99.90
7232;DHT22;3657;49.630;11.018;2022-11-23T01:53:31;4.80;99.90
7232;DHT22;3657;49.630;11.018;2022-11-23T01:56:01;4.80;99.90
7232;DHT22;3657;49.630;11.018;2022-11-23T01:58:32;4.80;99.90
7232;DHT22;3657;49.630;11.018;2022-11-23T02:01:00;4.80;99.90
7232;DHT22;3657;49.630;11.018;2022-11-23T02:03:29;4.70;99.90
7232;DHT22;3657;49.630;11.018;2022-11-23T02:06:00;4.70;99.90
7232;DHT22;3657;49.630;11.018;2022-11-23T02:08:28;4.70;99.90
7232;DHT22;3657;49.630;11.018;2022-11-23T02:10:57;4.70;99.90
7232;DHT22;3657;49.630;11.018;2022-11-23T02:13:27;4.70;99.90
7232;DHT22;3657;49.630;11.018;2022-11-23T02:15:55;4.60;99.90
7232;DHT22;3657;49.630;11.018;2022-11-23T02:18:24;4.60;99.90
7232;DHT22;3657;49.630;11.018;2022-11-23T02:20:52;4.70;99.90
7232;DHT22;3657;49.630;11.018;2022-11-23T02:23:27;4.60;99.90
7232;DHT22;3657;49.630;11.018;2022-11-23T02:26:00;4.60;99.90
7232;DHT22;3657;49.630;11.018;2022-11-23T02:28:30;4.60;99.90
7232;DHT22;3657;49.630;11.018;2022-11-23T02:30:59;4.60;99.90
7232;DHT22;3657;49.630;11.018;2022-11-23T02:33:26;4.50;99.90
7232;DHT22;3657;49.630;11.018;2022-11-23T02:35:55;4.50;99.90
7232;DHT22;3657;49.630;11.018;2022-11-23T02:38:24;4.50;99.90
7232;DHT22;3657;49.630;11.018;2022-11-23T02:40:51;4.50;99.90
7232;DHT22;3657;49.630;11.018;2022-11-23T02:43:19;4.50;99.90
7232;DHT22;3657;49.630;11.018;2022-11-23T02:45:49;4.50;99.90
7232;DHT22;3657;49.630;11.018;2022-11-23T02:48:17;4.50;99.90
7232;DHT22;3657;49.630;11.018;2022-11-23T02:50:43;4.50;99.90
7232;DHT22;3657;49.630;11.018;2022-11-23T02:53:10;4.50;99.90
7232;DHT22;3657;49.630;11.018;2022-11-23T02:55:38;4.50;99.90
7232;DHT22;3657;49.630;11.018;2022-11-23T02:58:05;4.50;99.90
7232;DHT22;3657;49.630;11.018;2022-11-23T03:00:34;4.50;99.90
7232;DHT22;3657;49.630;11.018;2022-11-23T03:03:01;4.50;99.90
7232;DHT22;3657;49.630;11.018;2022-11-23T03:05:28;4.50;99.90
7232;DHT22;3657;49.630;11.018;2022-11-23T03:07:55;4.50;99.90
7232;DHT22;3657;49.630;11.018;2022-11-23T03:10:22;4.50;99.90
7232;DHT22;3657;49.630;11.018;2022-11-23T03:12:49;4.50;99.90
7232;DHT22;3657;49.630;11.018;2022-11-23T03:15:18;4.50;99.90
7232;DHT22;3657;49.630;11.018;2022-11-23T03:17:46;4.50;99.90
7232;DHT22;3657;49.630;11.018;2022-11-23T03:20:13;4.50;99.90
7232;DHT22;3657;49.630;11.018;2022-11-23T03:22:40;4.50;99.90
7232;DHT22;3657;49.630;11.018;2022-11-23T03:25:07;4.50;99.90
7232;DHT22;3657;49.630;11.018;2022-11-23T03:27:36;4.40;99.90
7232;DHT22;3657;49.630;11.018;2022-11-23T03:30:03;4.40;99.90
7232;DHT22;3657;49.630;11.018;2022-11-23T03:32:30;4.40;99.90
7232;DHT22;3657;49.630;11.018;2022-11-23T03:34:58;4.40;99.90
7232;DHT22;3657;49.630;11.018;2022-11-23T03:37:25;4.40;99.90
7232;DHT22;3657;49.630;11.018;2022-11-23T03:39:52;4.50;99.90
7232;DHT22;3657;49.630;11.018;2022-11-23T03:42:18;4.50;99.90
7232;DHT22;3657;49.630;11.018;2022-11-23T03:44:45;4.50;99.90
7232;DHT22;3657;49.630;11.018;2022-11-23T03:47:12;4.50;99.90
7232;DHT22;3657;49.630;11.018;2022-11-23T03:49:38;4.50;99.90
7232;DHT22;3657;49.630;11.018;2022-11-23T03:52:06;4.50;99.90
7232;DHT22;3657;49.630;11.018;2022-11-23T03:54:33;4.50;99.90
7232;DHT22;3657;49.630;11.018;2022-11-23T03:57:00;4.50;99.90
7232;DHT22;3657;49.630;11.018;2022-11-23T03:59:26;4.50;99.90
7232;DHT22;3657;49.630;11.018;2022-11-23T04:01:53;4.50;99.90
7232;DHT22;3657;49.630;11.018;2022-11-23T04:04:20;4.50;99.90
7232;DHT22;3657;49.630;11.018;2022-11-23T04:06:47;4.50;99.90
7232;DHT22;3657;49.630;11.018;2022-11-23T04:09:15;4.50;99.90
7232;DHT22;3657;49.630;11.018;2022-11-23T04:11:41;4.50;99.90
7232;DHT22;3657;49.630;11.018;2022-11-23T04:14:08;4.60;99.90
7232;DHT22;3657;49.630;11.018;2022-11-23T04:16:35;4.50;99.90
7232;DHT22;3657;49.630;11.018;2022-11-23T04:19:02;4.60;99.90
7232;DHT22;3657;49.630;11.018;2022-11-23T04:21:28;4.60;99.90
7232;DHT22;3657;49.630;11.018;2022-11-23T04:23:55;4.60;99.90
7232;DHT22;3657;49.630;11.018;2022-11-23T04:26:23;4.50;99.90
7232;DHT22;3657;49.630;11.018;2022-11-23T04:28:50;4.60;99.90
7232;DHT22;3657;49.630;11.018;2022-11-23T04:31:16;4.60;99.90
7232;DHT22;3657;49.630;11.018;2022-11-23T04:33:43;4.60;99.90
7232;DHT22;3657;49.630;11.018;2022-11-23T04:36:10;4.50;99.90
7232;DHT22;3657;49.630;11.018;2022-11-23T04:38:37;4.50;99.90
7232;DHT22;3657;49.630;11.018;2022-11-23T04:41:04;4.50;99.90
7232;DHT22;3657;49.630;11.018;2022-11-23T04:43:32;4.50;99.90
7232;DHT22;3657;49.630;11.018;2022-11-23T04:45:58;4.60;99.90
7232;DHT22;3657;49.630;11.018;2022-11-23T04:48:25;4.60;99.90
7232;DHT22;3657;49.630;11.018;2022-11-23T04:50:52;4.60;99.90
7232;DHT22;3657;49.630;11.018;2022-11-23T04:53:18;4.50;99.90
7232;DHT22;3657;49.630;11.018;2022-11-23T04:55:46;4.50;99.90
7232;DHT22;3657;49.630;11.018;2022-11-23T04:58:12;4.50;99.90
7232;DHT22;3657;49.630;11.018;2022-11-23T05:00:40;4.50;99.90
7232;DHT22;3657;49.630;11.018;2022-11-23T05:03:07;4.50;99.90
7232;DHT22;3657;49.630;11.018;2022-11-23T05:05:36;4.50;99.90
7232;DHT22;3657;49.630;11.018;2022-11-23T05:08:03;4.50;99.90
7232;DHT22;3657;49.630;11.018;2022-11-23T05:10:30;4.50;99.90
7232;DHT22;3657;49.630;11.018;2022-11-23T05:12:56;4.50;99.90
7232;DHT22;3657;49.630;11.018;2022-11-23T05:15:23;4.50;99.90
7232;DHT22;3657;49.630;11.018;2022-11-23T05:17:51;4.50;99.90
7232;DHT22;3657;49.630;11.018;2022-11-23T05:20:18;4.50;99.90
7232;DHT22;3657;49.630;11.018;2022-11-23T05:22:45;4.50;99.90
7232;DHT22;3657;49.630;11.018;2022-11-23T05:25:12;4.50;99.90
7232;DHT22;3657;49.630;11.018;2022-11-23T05:27:39;4.50;99.90
7232;DHT22;3657;49.630;11.018;2022-11-23T05:30:07;4.50;99.90
7232;DHT22;3657;49.630;11.018;2022-11-23T05:32:34;4.50;99.90
7232;DHT22;3657;49.630;11.018;2022-11-23T05:35:02;4.50;99.90
7232;DHT22;3657;49.630;11.018;2022-11-23T05:37:29;4.50;99.90
7232;DHT22;3657;49.630;11.018;2022-11-23T05:39:56;4.50;99.90
7232;DHT22;3657;49.630;11.018;2022-11-23T05:42:22;4.50;99.90
7232;DHT22;3657;49.630;11.018;2022-11-23T05:44:49;4.50;99.90
7232;DHT22;3657;49.630;11.018;2022-11-23T05:47:16;4.50;99.90
7232;DHT22;3657;49.630;11.018;2022-11-23T05:49:43;4.50;99.90
7232;DHT22;3657;49.630;11.018;2022-11-23T05:52:11;4.50;99.90
7232;DHT22;3657;49.630;11.018;2022-11-23T05:54:37;4.50;99.90
7232;DHT22;3657;49.630;11.018;2022-11-23T05:57:04;4.50;99.90
7232;DHT22;3657;49.630;11.018;2022-11-23T05:59:31;4.50;99.90
7232;DHT22;3657;49.630;11.018;2022-11-23T06:01:57;4.50;99.90
7232;DHT22;3657;49.630;11.018;2022-11-23T06:04:24;4.50;99.90
7232;DHT22;3657;49.630;11.018;2022-11-23T06:06:51;4.50;99.90
7232;DHT22;3657;49.630;11.018;2022-11-23T06:09:21;4.50;99.90
7232;DHT22;3657;49.630;11.018;2022-11-23T06:11:48;4.50;99.90
7232;DHT22;3657;49.630;11.018;2022-11-23T06:14:14;4.50;99.90
7232;DHT22;3657;49.630;11.018;2022-11-23T06:16:41;4.50;99.90
7232;DHT22;3657;49.630;11.018;2022-11-23T06:19:08;4.50;99.90
7232;DHT22;3657;49.630;11.018;2022-11-23T06:21:35;4.40;99.90
7232;DHT22;3657;49.630;11.018;2022-11-23T06:24:01;4.40;99.90
7232;DHT22;3657;49.630;11.018;2022-11-23T06:26:29;4.40;99.90
7232;DHT22;3657;49.630;11.018;2022-11-23T06:28:57;4.40;99.90
7232;DHT22;3657;49.630;11.018;2022-11-23T06:31:23;4.40;99.90
7232;DHT22;3657;49.630;11.018;2022-11-23T06:33:51;4.50;99.90
7232;DHT22;3657;49.630;11.018;2022-11-23T06:36:17;4.50;99.90
7232;DHT22;3657;49.630;11.018;2022-11-23T06:38:44;4.50;99.90
7232;DHT22;3657;49.630;11.018;2022-11-23T06:41:11;4.40;99.90
7232;DHT22;3657;49.630;11.018;2022-11-23T06:43:39;4.40;99.90
7232;DHT22;3657;49.630;11.018;2022-11-23T06:46:06;4.40;99.90
7232;DHT22;3657;49.630;11.018;2022-11-23T06:48:33;4.40;99.90
7232;DHT22;3657;49.630;11.018;2022-11-23T06:51:00;4.40;99.90
7232;DHT22;3657;49.630;11.018;2022-11-23T06:53:27;4.40;99.90
7232;DHT22;3657;49.630;11.018;2022-11-23T06:55:57;4.40;99.90
7232;DHT22;3657;49.630;11.018;2022-11-23T06:58:24;4.40;99.90
7232;DHT22;3657;49.630;11.018;2022-11-23T07:00:52;4.50;99.90
7232;DHT22;3657;49.630;11.018;2022-11-23T07:03:21;4.40;99.90
7232;DHT22;3657;49.630;11.018;2022-11-23T07:05:48;4.40;99.90
7232;DHT22;3657;49.630;11.018;2022-11-23T07:08:15;4.50;99.90
7232;DHT22;3657;49.630;11.018;2022-11-23T07:10:42;4.50;99.90
7232;DHT22;3657;49.630;11.018;2022-11-23T07:13:09;4.50;99.90
7232;DHT22;3657;49.630;11.018;2022-11-23T07:15:36;4.50;99.90
7232;DHT22;3657;49.630;11.018;2022-11-23T07:18:05;4.50;99.90
7232;DHT22;3657;49.630;11.018;2022-11-23T07:20:32;4.50;99.90
7232;DHT22;3657;49.630;11.018;2022-11-23T07:22:59;4.50;99.90
7232;DHT22;3657;49.630;11.018;2022-11-23T07:25:26;4.50;99.90
7232;DHT22;3657;49.630;11.018;2022-11-23T07:27:54;4.50;99.90
7232;DHT22;3657;49.630;11.018;2022-11-23T07:30:21;4.50;99.90
7232;DHT22;3657;49.630;11.018;2022-11-23T07:32:48;4.50;99.90
7232;DHT22;3657;49.630;11.018;2022-11-23T07:35:16;4.60;99.90
7232;DHT22;3657;49.630;11.018;2022-11-23T07:37:44;4.60;99.90
7232;DHT22;3657;49.630;11.018;2022-11-23T07:40:11;4.60;99.90
7232;DHT22;3657;49.630;11.018;2022-11-23T07:42:38;4.60;99.90
7232;DHT22;3657;49.630;11.018;2022-11-23T07:45:06;4.60;99.90
7232;DHT22;3657;49.630;11.018;2022-11-23T07:47:33;4.60;99.90
7232;DHT22;3657;49.630;11.018;2022-11-23T07:50:00;4.70;99.90
7232;DHT22;3657;49.630;11.018;2022-11-23T07:52:28;4.70;99.90
7232;DHT22;3657;49.630;11.018;2022-11-23T07:54:55;4.70;99.90
7232;DHT22;3657;49.630;11.018;2022-11-23T07:57:22;4.70;99.90
7232;DHT22;3657;49.630;11.018;2022-11-23T07:59:48;4.70;99.90
7232;DHT22;3657;49.630;11.018;2022-11-23T08:02:15;4.70;99.90
7232;DHT22;3657;49.630;11.018;2022-11-23T08:04:42;4.70;99.90
7232;DHT22;3657;49.630;11.018;2022-11-23T08:07:08;4.70;99.90
7232;DHT22;3657;49.630;11.018;2022-11-23T08:09:37;4.70;99.90
7232;DHT22;3657;49.630;11.018;2022-11-23T08:12:04;4.70;99.90
7232;DHT22;3657;49.630;11.018;2022-11-23T08:14:31;4.70;99.90
7232;DHT22;3657;49.630;11.018;2022-11-23T08:16:57;4.70;99.90
7232;DHT22;3657;49.630;11.018;2022-11-23T08:19:24;4.80;99.90
7232;DHT22;3657;49.630;11.018;2022-11-23T08:21:51;4.80;99.90
7232;DHT22;3657;49.630;11.018;2022-11-23T08:24:18;4.80;99.90
7232;DHT22;3657;49.630;11.018;2022-11-23T08:26:45;4.80;99.90
7232;DHT22;3657;49.630;11.018;2022-11-23T08:29:12;4.80;99.90
7232;DHT22;3657;49.630;11.018;2022-11-23T08:31:51;4.80;99.90
7232;DHT22;3657;49.630;11.018;2022-11-23T08:34:18;4.90;99.90
7232;DHT22;3657;49.630;11.018;2022-11-23T08:36:45;4.90;99.90
7232;DHT22;3657;49.630;11.018;2022-11-23T08:39:12;4.90;99.90
7232;DHT22;3657;49.630;11.018;2022-11-23T08:41:39;4.90;99.90
7232;DHT22;3657;49.630;11.018;2022-11-23T08:44:08;4.90;99.90
7232;DHT22;3657;49.630;11.018;2022-11-23T08:46:36;5.00;99.90
7232;DHT22;3657;49.630;11.018;2022-11-23T08:49:04;5.00;99.90
7232;DHT22;3657;49.630;11.018;2022-11-23T08:51:31;5.00;99.90
7232;DHT22;3657;49.630;11.018;2022-11-23T08:53:58;5.00;99.90
7232;DHT22;3657;49.630;11.018;2022-11-23T08:56:25;5.10;99.90
7232;DHT22;3657;49.630;11.018;2022-11-23T08:58:52;5.10;99.90
7232;DHT22;3657;49.630;11.018;2022-11-23T09:01:20;5.20;99.90
7232;DHT22;3657;49.630;11.018;2022-11-23T09:03:46;5.20;99.90
7232;DHT22;3657;49.630;11.018;2022-11-23T09:06:13;5.20;99.90
7232;DHT22;3657;49.630;11.018;2022-11-23T09:08:40;5.30;99.90
7232;DHT22;3657;49.630;11.018;2022-11-23T09:11:10;5.30;99.90
7232;DHT22;3657;49.630;11.018;2022-11-23T09:13:38;5.30;99.90
7232;DHT22;3657;49.630;11.018;2022-11-23T09:16:06;5.30;99.90
7232;DHT22;3657;49.630;11.018;2022-11-23T09:18:34;5.40;99.90
7232;DHT22;3657;49.630;11.018;2022-11-23T09:21:02;5.40;99.90
7232;DHT22;3657;49.630;11.018;2022-11-23T09:23:29;5.50;99.90
7232;DHT22;3657;49.630;11.018;2022-11-23T09:25:57;5.50;99.90
7232;DHT22;3657;49.630;11.018;2022-11-23T09:28:24;5.50;99.90
7232;DHT22;3657;49.630;11.018;2022-11-23T09:30:52;5.60;99.90
7232;DHT22;3657;49.630;11.018;2022-11-23T09:33:20;5.60;99.90
7232;DHT22;3657;49.630;11.018;2022-11-23T09:35:55;5.60;99.90
7232;DHT22;3657;49.630;11.018;2022-11-23T09:38:22;5.70;99.90
7232;DHT22;3657;49.630;11.018;2022-11-23T09:40:56;5.70;99.90
7232;DHT22;3657;49.630;11.018;2022-11-23T09:43:41;5.80;99.90
7232;DHT22;3657;49.630;11.018;2022-11-23T09:46:14;5.90;99.90
7232;DHT22;3657;49.630;11.018;2022-11-23T09:48:56;5.90;99.90
7232;DHT22;3657;49.630;11.018;2022-11-23T09:51:29;6.00;99.90
7232;DHT22;3657;49.630;11.018;2022-11-23T09:53:59;6.00;99.90
7232;DHT22;3657;49.630;11.018;2022-11-23T09:56:32;6.10;99.90
7232;DHT22;3657;49.630;11.018;2022-11-23T09:59:02;6.10;99.90
7232;DHT22;3657;49.630;11.018;2022-11-23T10:01:30;6.10;99.90
7232;DHT22;3657;49.630;11.018;2022-11-23T10:03:57;6.20;99.90
7232;DHT22;3657;49.630;11.018;2022-11-23T10:06:26;6.30;99.90
7232;DHT22;3657;49.630;11.018;2022-11-23T10:09:16;6.40;99.90
7232;DHT22;3657;49.630;11.018;2022-11-23T10:12:01;6.50;99.90
7232;DHT22;3657;49.630;11.018;2022-11-23T10:14:44;6.50;99.90
7232;DHT22;3657;49.630;11.018;2022-11-23T10:17:17;6.50;99.90
7232;DHT22;3657;49.630;11.018;2022-11-23T10:19:59;6.70;99.90
7232;DHT22;3657;49.630;11.018;2022-11-23T10:22:33;6.70;99.90
7232;DHT22;3657;49.630;11.018;2022-11-23T10:25:13;6.80;99.90
7232;DHT22;3657;49.630;11.018;2022-11-23T10:27:41;6.80;99.90
7232;DHT22;3657;49.630;11.018;2022-11-23T10:30:11;6.80;99.90
7232;DHT22;3657;49.630;11.018;2022-11-23T10:32:43;6.80;99.90
7232;DHT22;3657;49.630;11.018;2022-11-23T10:35:12;6.90;99.90
7232;DHT22;3657;49.630;11.018;2022-11-23T10:37:39;7.00;99.90
7232;DHT22;3657;49.630;11.018;2022-11-23T10:40:15;7.10;99.90
7232;DHT22;3657;49.630;11.018;2022-11-23T10:42:45;7.30;99.90
7232;DHT22;3657;49.630;11.018;2022-11-23T10:45:18;7.40;99.90
7232;DHT22;3657;49.630;11.018;2022-11-23T10:47:49;7.50;99.90
7232;DHT22;3657;49.630;11.018;2022-11-23T10:50:26;7.60;99.90
7232;DHT22;3657;49.630;11.018;2022-11-23T10:52:56;7.80;99.90
7232;DHT22;3657;49.630;11.018;2022-11-23T10:55:28;8.00;99.90
7232;DHT22;3657;49.630;11.018;2022-11-23T10:57:56;8.00;99.90
7232;DHT22;3657;49.630;11.018;2022-11-23T11:00:24;8.00;99.90
7232;DHT22;3657;49.630;11.018;2022-11-23T11:02:53;8.00;99.90
7232;DHT22;3657;49.630;11.018;2022-11-23T11:05:24;8.00;99.90
7232;DHT22;3657;49.630;11.018;2022-11-23T11:07:52;7.90;99.90
7232;DHT22;3657;49.630;11.018;2022-11-23T11:10:36;7.90;99.90
7232;DHT22;3657;49.630;11.018;2022-11-23T11:13:23;7.90;99.90
7232;DHT22;3657;49.630;11.018;2022-11-23T11:15:53;8.00;99.90
7232;DHT22;3657;49.630;11.018;2022-11-23T11:18:19;8.00;99.90
7232;DHT22;3657;49.630;11.018;2022-11-23T11:20:48;7.90;99.90
7232;DHT22;3657;49.630;11.018;2022-11-23T11:23:21;8.00;99.90
7232;DHT22;3657;49.630;11.018;2022-11-23T11:26:02;8.00;99.90
7232;DHT22;3657;49.630;11.018;2022-11-23T11:28:34;8.00;99.90
7232;DHT22;3657;49.630;11.018;2022-11-23T11:31:14;8.10;99.90
7232;DHT22;3657;49.630;11.018;2022-11-23T11:33:49;8.10;99.90
7232;DHT22;3657;49.630;11.018;2022-11-23T11:36:17;8.20;99.90
7232;DHT22;3657;49.630;11.018;2022-11-23T11:38:47;8.20;99.90
7232;DHT22;3657;49.630;11.018;2022-11-23T11:41:16;8.40;99.90
7232;DHT22;3657;49.630;11.018;2022-11-23T11:43:52;8.40;99.90
7232;DHT22;3657;49.630;11.018;2022-11-23T11:46:22;8.50;99.90
7232;DHT22;3657;49.630;11.018;2022-11-23T11:48:52;8.60;99.90
7232;DHT22;3657;49.630;11.018;2022-11-23T11:51:24;8.80;99.90
7232;DHT22;3657;49.630;11.018;2022-11-23T11:53:56;8.80;99.90
7232;DHT22;3657;49.630;11.018;2022-11-23T11:56:29;8.90;99.90
7232;DHT22;3657;49.630;11.018;2022-11-23T11:59:01;8.90;99.90
7232;DHT22;3657;49.630;11.018;2022-11-23T12:01:34;8.90;99.90
7232;DHT22;3657;49.630;11.018;2022-11-23T12:04:08;9.10;99.90
7232;DHT22;3657;49.630;11.018;2022-11-23T12:06:42;9.20;99.90
7232;DHT22;3657;49.630;11.018;2022-11-23T12:09:13;9.30;99.90
7232;DHT22;3657;49.630;11.018;2022-11-23T12:11:43;9.30;99.90
7232;DHT22;3657;49.630;11.018;2022-11-23T12:14:12;9.40;99.90
7232;DHT22;3657;49.630;11.018;2022-11-23T12:16:46;9.50;99.90
7232;DHT22;3657;49.630;11.018;2022-11-23T12:19:18;9.50;99.90
7232;DHT22;3657;49.630;11.018;2022-11-23T12:22:04;9.50;99.90
7232;DHT22;3657;49.630;11.018;2022-11-23T12:24:45;9.40;99.90
7232;DHT22;3657;49.630;11.018;2022-11-23T12:27:23;9.40;99.90
7232;DHT22;3657;49.630;11.018;2022-11-23T12:30:03;9.60;99.90
7232;DHT22;3657;49.630;11.018;2022-11-23T12:32:47;9.80;99.90
7232;DHT22;3657;49.630;11.018;2022-11-23T12:35:30;9.80;99.90
7232;DHT22;3657;49.630;11.018;2022-11-23T12:38:07;9.70;99.90
7232;DHT22;3657;49.630;11.018;2022-11-23T12:40:50;9.70;99.90
7232;DHT22;3657;49.630;11.018;2022-11-23T12:43:22;9.70;99.90
7232;DHT22;3657;49.630;11.018;2022-11-23T12:46:02;9.70;99.90
7232;DHT22;3657;49.630;11.018;2022-11-23T12:48:44;9.80;99.90
7232;DHT22;3657;49.630;11.018;2022-11-23T12:51:22;9.80;99.90
7232;DHT22;3657;49.630;11.018;2022-11-23T12:53:57;9.80;99.90
7232;DHT22;3657;49.630;11.018;2022-11-23T12:56:42;9.80;99.90
7232;DHT22;3657;49.630;11.018;2022-11-23T12:59:13;10.10;99.90
7232;DHT22;3657;49.630;11.018;2022-11-23T13:01:43;10.40;99.90
7232;DHT22;3657;49.630;11.018;2022-11-23T13:04:28;10.40;99.90
7232;DHT22;3657;49.630;11.018;2022-11-23T13:10:17;10.10;99.90
7232;DHT22;3657;49.630;11.018;2022-11-23T13:12:59;9.90;99.90
7232;DHT22;3657;49.630;11.018;2022-11-23T13:15:46;9.90;99.90
7232;DHT22;3657;49.630;11.018;2022-11-23T13:18:22;9.60;99.90
7232;DHT22;3657;49.630;11.018;2022-11-23T13:21:10;9.70;99.90
7232;DHT22;3657;49.630;11.018;2022-11-23T13:23:39;9.80;99.90
7232;DHT22;3657;49.630;11.018;2022-11-23T13:26:14;10.00;99.90
7232;DHT22;3657;49.630;11.018;2022-11-23T13:28:41;10.10;99.90
7232;DHT22;3657;49.630;11.018;2022-11-23T13:31:20;10.30;99.90
7232;DHT22;3657;49.630;11.018;2022-11-23T13:33:49;10.60;99.90
7232;DHT22;3657;49.630;11.018;2022-11-23T13:36:40;10.80;99.90
7232;DHT22;3657;49.630;11.018;2022-11-23T13:42:25;11.20;99.90
7232;DHT22;3657;49.630;11.018;2022-11-23T13:45:24;11.10;99.90
7232;DHT22;3657;49.630;11.018;2022-11-23T13:48:13;10.80;99.90
7232;DHT22;3657;49.630;11.018;2022-11-23T13:50:56;10.50;99.90
7232;DHT22;3657;49.630;11.018;2022-11-23T13:53:25;10.30;99.90
7232;DHT22;3657;49.630;11.018;2022-11-23T13:55:55;10.10;99.90
7232;DHT22;3657;49.630;11.018;2022-11-23T13:58:38;10.20;99.90
7232;DHT22;3657;49.630;11.018;2022-11-23T14:01:06;10.30;99.90
7232;DHT22;3657;49.630;11.018;2022-11-23T14:04:17;10.30;99.90
7232;DHT22;3657;49.630;11.018;2022-11-23T14:06:45;9.90;99.90
7232;DHT22;3657;49.630;11.018;2022-11-23T14:09:20;9.80;99.90
7232;DHT22;3657;49.630;11.018;2022-11-23T14:12:01;9.70;99.90
7232;DHT22;3657;49.630;11.018;2022-11-23T14:14:34;9.70;99.90
7232;DHT22;3657;49.630;11.018;2022-11-23T14:17:38;9.70;99.90
7232;DHT22;3657;49.630;11.018;2022-11-23T14:20:19;9.70;99.90
7232;DHT22;3657;49.630;11.018;2022-11-23T14:22:59;9.70;99.90
7232;DHT22;3657;49.630;11.018;2022-11-23T14:25:43;9.70;99.90
7232;DHT22;3657;49.630;11.018;2022-11-23T14:28:26;9.70;99.90
7232;DHT22;3657;49.630;11.018;2022-11-23T14:31:07;9.50;99.90
7232;DHT22;3657;49.630;11.018;2022-11-23T14:33:43;9.40;99.90
7232;DHT22;3657;49.630;11.018;2022-11-23T14:36:21;9.50;99.90
7232;DHT22;3657;49.630;11.018;2022-11-23T14:39:28;9.50;99.90
7232;DHT22;3657;49.630;11.018;2022-11-23T14:42:00;9.50;99.90
7232;DHT22;3657;49.630;11.018;2022-11-23T14:44:29;9.50;99.90
7232;DHT22;3657;49.630;11.018;2022-11-23T14:47:00;9.40;99.90
7232;DHT22;3657;49.630;11.018;2022-11-23T14:49:27;9.30;99.90
7232;DHT22;3657;49.630;11.018;2022-11-23T14:51:55;9.20;99.90
7232;DHT22;3657;49.630;11.018;2022-11-23T14:54:22;9.00;99.90
7232;DHT22;3657;49.630;11.018;2022-11-23T14:56:51;8.90;99.90
7232;DHT22;3657;49.630;11.018;2022-11-23T14:59:21;8.80;99.90
7232;DHT22;3657;49.630;11.018;2022-11-23T15:01:50;8.80;99.90
7232;DHT22;3657;49.630;11.018;2022-11-23T15:04:24;8.80;99.90
7232;DHT22;3657;49.630;11.018;2022-11-23T15:06:53;8.80;99.90
7232;DHT22;3657;49.630;11.018;2022-11-23T15:09:43;8.70;99.90
7232;DHT22;3657;49.630;11.018;2022-11-23T15:12:21;8.70;99.90
7232;DHT22;3657;49.630;11.018;2022-11-23T15:14:48;8.60;99.90
7232;DHT22;3657;49.630;11.018;2022-11-23T15:17:17;8.50;99.90
7232;DHT22;3657;49.630;11.018;2022-11-23T15:19:52;8.50;99.90
7232;DHT22;3657;49.630;11.018;2022-11-23T15:22:21;8.50;99.90
7232;DHT22;3657;49.630;11.018;2022-11-23T15:24:50;8.30;99.90
7232;DHT22;3657;49.630;11.018;2022-11-23T15:27:21;8.20;99.90
7232;DHT22;3657;49.630;11.018;2022-11-23T15:29:51;8.10;99.90
7232;DHT22;3657;49.630;11.018;2022-11-23T15:32:24;8.20;99.90
7232;DHT22;3657;49.630;11.018;2022-11-23T15:34:53;8.20;99.90
7232;DHT22;3657;49.630;11.018;2022-11-23T15:37:21;8.20;99.90
7232;DHT22;3657;49.630;11.018;2022-11-23T15:39:50;8.20;99.90
7232;DHT22;3657;49.630;11.018;2022-11-23T15:42:19;8.10;99.90
7232;DHT22;3657;49.630;11.018;2022-11-23T15:44:48;8.20;99.90
7232;DHT22;3657;49.630;11.018;2022-11-23T15:47:18;8.20;99.90
7232;DHT22;3657;49.630;11.018;2022-11-23T15:49:47;8.20;99.90
7232;DHT22;3657;49.630;11.018;2022-11-23T15:52:17;8.10;99.90
7232;DHT22;3657;49.630;11.018;2022-11-23T15:54:45;8.10;99.90
7232;DHT22;3657;49.630;11.018;2022-11-23T15:57:17;8.00;99.90
7232;DHT22;3657;49.630;11.018;2022-11-23T15:59:46;7.90;99.90
7232;DHT22;3657;49.630;11.018;2022-11-23T16:02:15;7.80;99.90
7232;DHT22;3657;49.630;11.018;2022-11-23T16:04:42;7.60;99.90
7232;DHT22;3657;49.630;11.018;2022-11-23T16:07:17;7.50;99.90
7232;DHT22;3657;49.630;11.018;2022-11-23T16:09:45;7.40;99.90
7232;DHT22;3657;49.630;11.018;2022-11-23T16:12:25;7.20;99.90
7232;DHT22;3657;49.630;11.018;2022-11-23T16:14:53;7.20;99.90
7232;DHT22;3657;49.630;11.018;2022-11-23T16:17:22;7.10;99.90
7232;DHT22;3657;49.630;11.018;2022-11-23T16:19:50;7.00;99.90
7232;DHT22;3657;49.630;11.018;2022-11-23T16:22:25;6.90;99.90
7232;DHT22;3657;49.630;11.018;2022-11-23T16:25:03;7.00;99.90
7232;DHT22;3657;49.630;11.018;2022-11-23T16:27:32;6.90;99.90